createdAt,value
2023-03-07T00:00:50.453Z,28.03
2023-03-07T00:03:53.273Z,33.60
2023-03-07T00:06:57.310Z,29.87
2023-03-07T00:09:59.671Z,39.20
2023-03-07T00:13:01.928Z,24.90
2023-03-07T00:16:09.592Z,33.27
2023-03-07T00:19:11.798Z,27.63
2023-03-07T00:22:14.727Z,31.67
2023-03-07T00:25:18.055Z,34.33
2023-03-07T00:28:20.229Z,26.97
2023-03-07T00:31:24.252Z,33.27
2023-03-07T00:34:26.685Z,35.35
2023-03-07T00:37:32.030Z,28.93
2023-03-07T00:40:34.940Z,45.47
2023-03-07T00:43:40.338Z,29.27
2023-03-07T00:46:42.626Z,32.93
2023-03-07T00:49:44.895Z,38.03
2023-03-07T00:52:47.019Z,42.17
2023-03-07T00:56:00.332Z,27.70
2023-03-07T00:59:03.156Z,35.23
2023-03-07T01:02:06.452Z,26.93
2023-03-07T01:05:09.005Z,24.47
2023-03-07T01:08:11.378Z,31.47
2023-03-07T01:11:14.427Z,30.27
2023-03-07T01:14:16.777Z,26.87
2023-03-07T01:17:19.072Z,30.37
2023-03-07T01:20:22.255Z,29.37
2023-03-07T01:23:24.496Z,37.87
2023-03-07T01:26:29.710Z,29.53
2023-03-07T01:29:33.034Z,36.83
2023-03-07T01:32:35.502Z,35.33
2023-03-07T01:35:41.339Z,26.57
2023-03-07T01:38:43.463Z,21.80
2023-03-07T01:41:46.793Z,30.27
2023-03-07T01:45:34.051Z,31.48
2023-03-07T01:48:36.587Z,36.97
2023-03-07T01:51:41.858Z,28.83
2023-03-07T01:54:49.291Z,30.73
2023-03-07T01:57:52.833Z,31.63
2023-03-07T02:00:57.560Z,26.67
2023-03-07T02:04:38.263Z,26.77
2023-03-07T02:07:49.276Z,36.67
2023-03-07T02:10:52.025Z,23.27
2023-03-07T02:13:54.328Z,28.10
2023-03-07T02:16:56.582Z,29.50
2023-03-07T02:20:26.255Z,35.10
2023-03-07T02:23:51.974Z,24.60
2023-03-07T02:26:54.179Z,29.10
2023-03-07T02:29:57.324Z,22.30
2023-03-07T02:32:59.527Z,24.13
2023-03-07T02:36:33.425Z,25.10
2023-03-07T02:39:36.240Z,14.23
2023-03-07T02:42:42.367Z,18.33
2023-03-07T02:45:44.541Z,30.60
2023-03-07T02:48:47.574Z,33.30
2023-03-07T02:51:49.873Z,28.37
2023-03-07T02:54:52.092Z,26.87
2023-03-07T02:57:54.217Z,21.27
2023-03-07T03:00:56.414Z,24.13
2023-03-07T03:03:58.711Z,23.23
2023-03-07T03:07:00.963Z,30.10
2023-03-07T03:10:03.810Z,27.47
2023-03-07T03:13:07.732Z,24.67
2023-03-07T03:16:09.920Z,23.07
2023-03-07T03:19:12.077Z,28.40
2023-03-07T03:22:14.344Z,28.60
2023-03-07T03:25:16.485Z,24.43
2023-03-07T03:28:18.706Z,17.97
2023-03-07T03:31:20.946Z,25.17
2023-03-07T03:34:23.358Z,39.07
2023-03-07T03:37:25.530Z,16.13
2023-03-07T03:40:27.933Z,24.67
2023-03-07T03:43:30.207Z,22.30
2023-03-07T03:46:32.498Z,26.80
2023-03-07T03:49:34.748Z,19.23
2023-03-07T03:52:37.260Z,35.77
2023-03-07T03:55:39.486Z,29.33
2023-03-07T03:58:41.682Z,25.07
2023-03-07T04:01:44.048Z,28.70
2023-03-07T04:04:46.265Z,27.43
2023-03-07T04:07:50.925Z,23.00
2023-03-07T04:10:54.368Z,30.00
2023-03-07T04:13:57.005Z,18.73
2023-03-07T04:16:59.209Z,31.63
2023-03-07T04:20:01.491Z,23.60
2023-03-07T04:23:03.800Z,39.70
2023-03-07T04:26:07.687Z,27.90
2023-03-07T04:29:10.591Z,34.20
2023-03-07T04:32:12.787Z,29.17
2023-03-07T04:35:14.946Z,26.47
2023-03-07T04:38:17.279Z,28.17
2023-03-07T04:41:22.003Z,17.33
2023-03-07T04:44:24.293Z,31.52
2023-03-07T04:47:26.737Z,29.83
2023-03-07T04:50:28.951Z,22.57
2023-03-07T04:53:31.216Z,40.97
2023-03-07T04:56:33.398Z,26.53
2023-03-07T04:59:39.262Z,28.00
2023-03-07T05:02:41.526Z,31.83
2023-03-07T05:05:43.758Z,23.17
2023-03-07T05:08:45.984Z,29.00
2023-03-07T05:11:48.080Z,34.53
2023-03-07T05:14:50.303Z,32.57
2023-03-07T05:17:52.965Z,22.03
2023-03-07T05:20:55.292Z,25.73
2023-03-07T05:23:57.631Z,30.87
2023-03-07T05:27:01.052Z,31.83
2023-03-07T05:30:03.954Z,33.23
2023-03-07T05:33:06.123Z,21.53
2023-03-07T05:36:08.682Z,39.23
2023-03-07T05:39:11.601Z,21.93
2023-03-07T05:42:16.421Z,22.90
2023-03-07T05:48:21.011Z,29.13
2023-03-07T05:51:23.542Z,17.43
2023-03-07T05:54:26.405Z,22.90
2023-03-07T05:57:28.493Z,26.43
2023-03-07T06:00:31.051Z,25.60
2023-03-07T06:03:33.614Z,23.10
2023-03-07T06:06:36.057Z,21.83
2023-03-07T06:09:39.130Z,26.27
2023-03-07T06:12:42.855Z,28.80
2023-03-07T06:15:45.225Z,30.50
2023-03-07T06:18:47.666Z,34.30
2023-03-07T06:21:50.118Z,24.80
2023-03-07T06:24:52.368Z,26.93
2023-03-07T06:27:59.863Z,24.83
2023-03-07T06:31:02.214Z,29.53
2023-03-07T06:34:06.043Z,24.83
2023-03-07T06:37:08.371Z,35.03
2023-03-07T06:40:11.265Z,35.90
2023-03-07T06:43:16.748Z,28.10
2023-03-07T06:46:20.632Z,40.07
2023-03-07T06:49:23.041Z,37.63
2023-03-07T06:52:25.224Z,39.27
2023-03-07T06:55:27.451Z,30.00
2023-03-07T06:58:30.624Z,34.60
2023-03-07T07:01:32.952Z,30.40
2023-03-07T07:04:35.110Z,36.20
2023-03-07T07:07:37.309Z,26.90
2023-03-07T07:10:39.476Z,28.37
2023-03-07T07:13:41.732Z,41.37
2023-03-07T07:16:43.908Z,26.23
2023-03-07T07:19:46.159Z,28.57
2023-03-07T07:22:48.304Z,26.10
2023-03-07T07:25:50.439Z,33.47
2023-03-07T07:28:52.735Z,24.17
2023-03-07T07:31:55.226Z,29.33
2023-03-07T07:34:57.893Z,31.53
2023-03-07T07:38:00.041Z,26.20
2023-03-07T07:41:02.573Z,18.50
2023-03-07T07:44:04.817Z,24.50
2023-03-07T07:47:07.024Z,16.67
2023-03-07T07:50:09.872Z,27.67
2023-03-07T07:53:12.226Z,30.47
2023-03-07T07:56:14.908Z,29.67
2023-03-07T07:59:17.101Z,30.02
2023-03-07T08:02:19.341Z,15.40
2023-03-07T08:05:22.367Z,28.42
2023-03-07T08:08:24.527Z,22.98
2023-03-07T08:11:26.992Z,27.40
2023-03-07T08:14:29.228Z,25.50
2023-03-07T08:17:31.389Z,28.13
2023-03-07T08:20:33.990Z,18.63
2023-03-07T08:23:37.683Z,25.42
2023-03-07T08:26:39.877Z,27.45
2023-03-07T08:29:42.034Z,25.92
2023-03-07T08:32:44.300Z,22.25
2023-03-07T08:35:46.494Z,20.88
2023-03-07T08:38:52.498Z,23.52
2023-03-07T08:41:55.536Z,24.65
2023-03-07T08:44:57.764Z,24.75
2023-03-07T08:48:00.298Z,28.20
2023-03-07T08:51:08.995Z,32.77
2023-03-07T08:54:11.428Z,33.72
2023-03-07T08:57:13.693Z,16.35
2023-03-07T09:00:16.530Z,31.13
2023-03-07T09:03:18.767Z,30.08
2023-03-07T09:06:21.773Z,23.55
2023-03-07T09:09:23.967Z,23.92
2023-03-07T09:12:27.064Z,20.77
2023-03-07T09:15:29.421Z,22.58
2023-03-07T09:18:31.811Z,17.50
2023-03-07T09:21:34.113Z,31.80
2023-03-07T09:24:36.208Z,20.55
2023-03-07T09:27:38.440Z,22.70
2023-03-07T09:30:40.559Z,24.90
2023-03-07T09:33:46.525Z,20.15
2023-03-07T09:36:51.684Z,16.90
2023-03-07T09:39:53.807Z,22.13
2023-03-07T09:43:16.289Z,17.65
2023-03-07T09:47:04.763Z,16.58
2023-03-07T09:50:36.933Z,16.50
2023-03-07T09:54:03.121Z,23.88
2023-03-07T09:57:11.052Z,16.40
2023-03-07T10:00:43.025Z,15.45
2023-03-07T10:03:59.188Z,15.55
2023-03-07T10:07:04.196Z,12.85
2023-03-07T10:10:14.489Z,20.17
2023-03-07T10:13:53.963Z,13.23
2023-03-07T10:17:15.616Z,24.33
2023-03-07T10:20:26.736Z,18.35
2023-03-07T10:23:56.992Z,11.23
2023-03-07T10:27:13.481Z,19.02
2023-03-07T10:30:21.189Z,5.68
2023-03-07T10:33:23.598Z,11.18
2023-03-07T10:36:42.505Z,17.65
2023-03-07T10:39:55.312Z,11.02
2023-03-07T10:42:59.253Z,10.27
2023-03-07T10:49:44.243Z,10.57
2023-03-07T10:52:53.780Z,24.73
2023-03-07T10:56:17.115Z,12.50
2023-03-07T10:59:25.948Z,7.93
2023-03-07T11:02:46.028Z,6.68
2023-03-07T11:05:50.296Z,8.70
2023-03-07T11:08:52.753Z,10.07
2023-03-07T11:12:12.200Z,13.63
2023-03-07T11:15:23.817Z,11.30
2023-03-07T11:18:31.972Z,15.73
2023-03-07T11:21:35.772Z,15.30
2023-03-07T11:24:40.153Z,9.20
2023-03-07T11:27:51.299Z,10.00
2023-03-07T11:31:14.395Z,14.20
2023-03-07T11:34:36.954Z,13.93
2023-03-07T11:37:44.973Z,15.30
2023-03-07T11:41:06.096Z,14.10
2023-03-07T11:44:35.156Z,13.60
2023-03-07T11:47:37.337Z,5.53
2023-03-07T11:50:43.066Z,17.38
2023-03-07T11:53:48.085Z,15.82
2023-03-07T11:56:56.538Z,12.45
2023-03-07T12:00:18.155Z,17.35
2023-03-07T12:03:39.094Z,14.60
2023-03-07T12:06:49.878Z,12.02
2023-03-07T12:10:25.724Z,33.55
2023-03-07T12:13:33.799Z,12.95
2023-03-07T12:17:00.322Z,10.93
2023-03-07T12:20:19.120Z,13.18
2023-03-07T12:23:33.948Z,8.48
2023-03-07T12:26:58.329Z,12.43
2023-03-07T12:30:05.403Z,14.93
2023-03-07T12:33:13.378Z,16.42
2023-03-07T12:36:46.551Z,10.57
2023-03-07T12:39:58.730Z,10.60
2023-03-07T12:43:22.369Z,13.73
2023-03-07T12:46:40.601Z,10.57
2023-03-07T12:49:50.070Z,18.75
2023-03-07T12:52:58.589Z,6.97
2023-03-07T12:56:39.319Z,9.40
2023-03-07T12:59:43.810Z,12.25
2023-03-07T13:03:06.883Z,12.27
2023-03-07T13:06:16.951Z,13.30
2023-03-07T13:09:26.135Z,7.70
2023-03-07T13:12:29.751Z,12.98
2023-03-07T13:15:38.082Z,6.60
2023-03-07T13:18:40.516Z,10.80
2023-03-07T13:21:42.702Z,8.85
2023-03-07T13:24:46.131Z,14.25
2023-03-07T13:27:49.525Z,14.03
2023-03-07T13:31:21.148Z,19.60
2023-03-07T13:34:46.924Z,12.90
2023-03-07T13:37:51.226Z,14.27
2023-03-07T13:40:58.678Z,8.93
2023-03-07T13:44:02.243Z,14.98
2023-03-07T13:47:05.418Z,12.40
2023-03-07T13:50:35.558Z,7.97
2023-03-07T13:53:45.669Z,7.88
2023-03-07T13:56:49.020Z,11.75
2023-03-07T13:59:51.727Z,9.63
2023-03-07T14:02:54.993Z,10.15
2023-03-07T14:06:08.202Z,19.55
2023-03-07T14:09:18.273Z,4.68
2023-03-07T14:13:09.528Z,7.50
2023-03-07T14:16:28.108Z,11.70
2023-03-07T14:19:45.489Z,8.30
2023-03-07T14:23:18.590Z,9.45
2023-03-07T14:26:23.230Z,8.52
2023-03-07T14:29:27.866Z,8.85
2023-03-07T14:32:31.821Z,7.43
2023-03-07T14:35:45.142Z,7.70
2023-03-07T14:38:49.940Z,5.38
2023-03-07T14:42:02.662Z,12.23
2023-03-07T14:45:21.581Z,8.18
2023-03-07T14:48:35.938Z,10.93
2023-03-07T14:51:41.685Z,10.85
2023-03-07T14:54:46.806Z,5.43
2023-03-07T14:57:53.248Z,10.40
2023-03-07T15:01:04.277Z,6.32
2023-03-07T15:04:29.475Z,14.68
2023-03-07T15:07:35.677Z,13.13
2023-03-07T15:10:47.154Z,10.68
2023-03-07T15:13:58.629Z,17.67
2023-03-07T15:17:17.087Z,13.38
2023-03-07T15:20:23.588Z,6.95
2023-03-07T15:23:29.286Z,12.00
2023-03-07T15:26:33.111Z,4.45
2023-03-07T15:29:35.302Z,12.27
2023-03-07T15:32:39.225Z,13.23
2023-03-07T15:35:42.231Z,10.23
2023-03-07T15:38:47.309Z,11.07
2023-03-07T15:42:19.849Z,11.18
2023-03-07T15:45:35.100Z,15.73
2023-03-07T15:48:49.667Z,11.82
2023-03-07T15:51:55.518Z,12.35
2023-03-07T15:54:59.332Z,10.02
2023-03-07T15:58:04.571Z,5.55
2023-03-07T16:01:23.392Z,15.82
2023-03-07T16:04:43.703Z,13.90
2023-03-07T16:07:46.298Z,16.08
2023-03-07T16:10:51.003Z,13.95
2023-03-07T16:13:53.204Z,15.50
2023-03-07T16:17:29.779Z,10.95
2023-03-07T16:20:32.000Z,16.90
2023-03-07T16:23:34.434Z,16.58
2023-03-07T16:26:37.026Z,14.32
2023-03-07T16:29:39.185Z,19.95
2023-03-07T16:32:41.791Z,16.25
2023-03-07T16:35:45.443Z,13.88
2023-03-07T16:38:47.912Z,6.65
2023-03-07T16:41:50.720Z,11.20
2023-03-07T16:44:52.942Z,12.98
2023-03-07T16:47:57.749Z,7.85
2023-03-07T16:51:00.043Z,10.32
2023-03-07T16:54:02.755Z,9.43
2023-03-07T16:57:07.136Z,10.00
2023-03-07T17:00:15.550Z,12.18
2023-03-07T17:03:18.577Z,7.07
2023-03-07T17:06:25.501Z,4.88
2023-03-07T17:09:33.583Z,12.32
2023-03-07T17:12:35.740Z,6.53
2023-03-07T17:15:38.361Z,6.03
2023-03-07T17:18:40.476Z,4.43
2023-03-07T17:21:43.683Z,3.50
2023-03-07T17:24:45.791Z,9.48
2023-03-07T17:27:52.952Z,6.88
2023-03-07T17:30:55.149Z,6.97
2023-03-07T17:33:57.327Z,10.40
2023-03-07T17:37:00.487Z,13.90
2023-03-07T17:40:06.013Z,11.75
2023-03-07T17:43:08.436Z,8.55
2023-03-07T17:46:11.904Z,9.43
2023-03-07T17:49:14.075Z,9.70
2023-03-07T17:52:16.302Z,11.55
2023-03-07T17:55:18.932Z,13.18
2023-03-07T17:58:21.098Z,11.15
2023-03-07T18:01:23.227Z,10.45
2023-03-07T18:04:26.017Z,8.13
2023-03-07T18:07:28.366Z,11.00
2023-03-07T18:10:30.845Z,7.18
2023-03-07T18:13:33.661Z,4.28
2023-03-07T18:16:35.841Z,9.60
2023-03-07T18:19:38.951Z,6.88
2023-03-07T18:22:41.919Z,4.63
2023-03-07T18:25:44.109Z,3.45
2023-03-07T18:28:47.758Z,5.85
2023-03-07T18:31:50.277Z,8.35
2023-03-07T18:34:55.582Z,3.83
2023-03-07T18:37:58.894Z,7.85
2023-03-07T18:41:25.236Z,4.95
2023-03-07T18:44:27.383Z,4.25
2023-03-07T18:47:29.503Z,4.15
2023-03-07T18:50:31.928Z,8.95
2023-03-07T18:53:35.303Z,9.65
2023-03-07T18:56:37.953Z,4.72
2023-03-07T18:59:40.241Z,11.48
2023-03-07T19:02:42.354Z,22.80
2023-03-07T19:05:49.507Z,14.30
2023-03-07T19:08:51.648Z,15.93
2023-03-07T19:11:54.910Z,15.27
2023-03-07T19:14:57.108Z,22.20
2023-03-07T19:17:59.449Z,37.00
2023-03-07T19:21:09.474Z,35.90
2023-03-07T19:24:12.171Z,25.65
2023-03-07T19:27:14.290Z,21.45
2023-03-07T19:30:19.152Z,26.60
2023-03-07T19:33:21.537Z,33.60
2023-03-07T19:36:29.417Z,19.38
2023-03-07T19:39:31.633Z,21.70
2023-03-07T19:42:34.027Z,25.15
2023-03-07T19:45:40.506Z,27.33
2023-03-07T19:48:44.239Z,26.15
2023-03-07T19:51:46.527Z,30.38
2023-03-07T19:54:53.424Z,34.92
2023-03-07T19:57:55.517Z,28.92
2023-03-07T20:00:59.290Z,39.30
2023-03-07T20:04:02.061Z,31.77
2023-03-07T20:07:04.172Z,25.08
2023-03-07T20:10:06.698Z,25.05
2023-03-07T20:13:09.105Z,28.05
2023-03-07T20:16:11.889Z,31.02
2023-03-07T20:19:14.399Z,26.75
2023-03-07T20:22:17.716Z,44.85
2023-03-07T20:25:20.862Z,30.48
2023-03-07T20:28:23.262Z,25.30
2023-03-07T20:31:25.974Z,33.28
2023-03-07T20:34:28.937Z,28.50
2023-03-07T20:37:33.917Z,32.28
2023-03-07T20:40:36.040Z,23.52
2023-03-07T20:43:38.414Z,27.60
2023-03-07T20:46:41.509Z,28.52
2023-03-07T20:49:45.579Z,30.77
2023-03-07T20:52:47.666Z,36.08
2023-03-07T20:55:50.792Z,30.92
2023-03-07T20:58:54.175Z,33.28
2023-03-07T21:01:56.412Z,37.90
2023-03-07T21:04:58.701Z,33.88
2023-03-07T21:08:01.103Z,40.78
2023-03-07T21:11:11.027Z,34.22
2023-03-07T21:14:15.383Z,31.60
2023-03-07T21:17:17.599Z,24.00
2023-03-07T21:20:20.146Z,30.08
2023-03-07T21:23:22.464Z,31.77
2023-03-07T21:26:30.346Z,28.88
2023-03-07T21:29:32.509Z,26.27
2023-03-07T21:32:34.735Z,25.30
2023-03-07T21:35:38.451Z,31.40
2023-03-07T21:38:42.459Z,37.70
2023-03-07T21:41:44.688Z,22.45
2023-03-07T21:44:46.890Z,28.05
2023-03-07T21:47:53.410Z,26.60
2023-03-07T21:50:55.671Z,27.30
2023-03-07T21:53:58.012Z,24.05
2023-03-07T21:57:00.186Z,26.77
2023-03-07T22:00:02.650Z,25.33
2023-03-07T22:03:05.043Z,28.80
2023-03-07T22:06:12.547Z,32.50
2023-03-07T22:09:15.629Z,28.13
2023-03-07T22:12:17.771Z,27.95
2023-03-07T22:15:19.927Z,29.05
2023-03-07T22:18:22.060Z,31.83
2023-03-07T22:21:27.947Z,34.17
2023-03-07T22:24:30.139Z,38.57
2023-03-07T22:27:32.525Z,35.08
2023-03-07T22:30:34.993Z,28.95
2023-03-07T22:33:37.427Z,26.15
2023-03-07T22:36:39.579Z,28.92
2023-03-07T22:39:41.723Z,22.45
2023-03-07T22:42:44.162Z,26.25
2023-03-07T22:45:50.665Z,25.75
2023-03-07T22:48:54.494Z,28.30
2023-03-07T22:51:56.888Z,29.77
2023-03-07T22:55:01.734Z,26.30
2023-03-07T22:58:05.158Z,22.67
2023-03-07T23:01:20.394Z,16.03
2023-03-07T23:04:22.702Z,15.45
2023-03-07T23:07:26.500Z,7.35
2023-03-07T23:10:30.104Z,10.50
2023-03-07T23:13:32.587Z,6.80
2023-03-07T23:16:36.569Z,9.95
2023-03-07T23:19:47.646Z,12.05
2023-03-07T23:22:50.206Z,11.82
2023-03-07T23:25:59.302Z,15.60
2023-03-07T23:29:02.459Z,13.90
2023-03-07T23:32:07.961Z,19.00
2023-03-07T23:35:19.242Z,14.95
2023-03-07T23:38:22.280Z,13.75
2023-03-07T23:41:25.227Z,9.93
2023-03-07T23:44:27.411Z,13.70
2023-03-07T23:47:29.595Z,6.00
2023-03-07T23:50:31.942Z,5.27
2023-03-07T23:53:34.142Z,7.38
2023-03-07T23:56:36.346Z,8.95
2023-03-07T23:59:38.610Z,7.20
